ABI298 HKJK-FZAA
Flight info
| Callsign | ABI298 |
|---|---|
| Flight time | 3h 0m |
| Altitude | 34000 |
| Route | IBRAT3E APLOG UL442 KAROS DCT BKV UL442 KIN UA613 ULVAS ULVAS1B |
| Aircraft | B77L/H-SDE1E2E3FGHIJ2J3J4J5M1RWXYZ/LB1D1 |
Departure
| Time | 2026-04-29 15:42 |
|---|---|
| Airport | Jomo Kenyatta International Airport (HKJK) |
Arrival
| Time | 2026-04-29 18:42 |
|---|---|
| Airport | Ndjili International Airport (FZAA) |
| Time | Latitude | Longitude | Altitude | Speed | Heading |
|---|---|---|---|---|---|
| 2026-04-29 14:45 | -1.33415 | 36.91517 | 5343 ft | 0 kts | 144° |
| 2026-04-29 15:25 | -1.33405 | 36.91509 | 5343 ft | 2 kts | 144° |
| 2026-04-29 15:25 | -1.33393 | 36.91501 | 5343 ft | 2 kts | 144° |
| 2026-04-29 15:25 | -1.33380 | 36.91492 | 5343 ft | 2 kts | 141° |
| 2026-04-29 15:25 | -1.33370 | 36.91481 | 5343 ft | 2 kts | 124° |
| 2026-04-29 15:26 | -1.33363 | 36.91468 | 5343 ft | 2 kts | 110° |
| 2026-04-29 15:26 | -1.33359 | 36.91454 | 5343 ft | 2 kts | 97° |
| 2026-04-29 15:26 | -1.33358 | 36.91439 | 5343 ft | 2 kts | 83° |
| 2026-04-29 15:26 | -1.33361 | 36.91425 | 5343 ft | 2 kts | 69° |
| 2026-04-29 15:27 | -1.33368 | 36.91411 | 5343 ft | 2 kts | 55° |
| 2026-04-29 15:27 | -1.33377 | 36.91399 | 5343 ft | 2 kts | 52° |
| 2026-04-29 15:27 | -1.33386 | 36.91388 | 5343 ft | 2 kts | 54° |
| 2026-04-29 15:27 | -1.33393 | 36.91378 | 5343 ft | 0 kts | 54° |
| 2026-04-29 15:31 | -1.33373 | 36.91405 | 5343 ft | 9 kts | 53° |
| 2026-04-29 15:31 | -1.33315 | 36.91484 | 5343 ft | 18 kts | 53° |
| 2026-04-29 15:31 | -1.33247 | 36.91575 | 5342 ft | 11 kts | 53° |
| 2026-04-29 15:32 | -1.33198 | 36.91628 | 5342 ft | 10 kts | 41° |
| 2026-04-29 15:32 | -1.33149 | 36.91671 | 5342 ft | 8 kts | 41° |
| 2026-04-29 15:32 | -1.33111 | 36.91710 | 5342 ft | 6 kts | 51° |
| 2026-04-29 15:32 | -1.33084 | 36.91743 | 5342 ft | 5 kts | 51° |
| 2026-04-29 15:33 | -1.33063 | 36.91774 | 5342 ft | 6 kts | 58° |
| 2026-04-29 15:33 | -1.33015 | 36.91812 | 5342 ft | 11 kts | 8° |
| 2026-04-29 15:33 | -1.32934 | 36.91775 | 5342 ft | 12 kts | 324° |
| 2026-04-29 15:33 | -1.32868 | 36.91729 | 5342 ft | 9 kts | 324° |
| 2026-04-29 15:34 | -1.32866 | 36.91727 | 5342 ft | 0 kts | 324° |
| 2026-04-29 15:39 | -1.32862 | 36.91725 | 5342 ft | 2 kts | 324° |
| 2026-04-29 15:39 | -1.32838 | 36.91708 | 5342 ft | 6 kts | 325° |
| 2026-04-29 15:40 | -1.32795 | 36.91678 | 5342 ft | 7 kts | 325° |
| 2026-04-29 15:40 | -1.32758 | 36.91663 | 5342 ft | 4 kts | 18° |
| 2026-04-29 15:40 | -1.32728 | 36.91678 | 5342 ft | 5 kts | 41° |
| 2026-04-29 15:40 | -1.32719 | 36.91689 | 5342 ft | 0 kts | 56° |
| 2026-04-29 15:41 | -1.32707 | 36.91707 | 5342 ft | 11 kts | 56° |
| 2026-04-29 15:41 | -1.32521 | 36.91963 | 5342 ft | 80 kts | 53° |
| 2026-04-29 15:42 | -1.32056 | 36.92600 | 5341 ft | 146 kts | 54° |
| 2026-04-29 15:42 | -1.31330 | 36.93601 | 5343 ft | 205 kts | 54° |
| 2026-04-29 15:42 | -1.30437 | 36.94795 | 5901 ft | 215 kts | 52° |
| 2026-04-29 15:42 | -1.29578 | 36.96013 | 6627 ft | 224 kts | 67° |
| 2026-04-29 15:43 | -1.29300 | 36.97493 | 7482 ft | 217 kts | 95° |
| 2026-04-29 15:43 | -1.29671 | 36.98961 | 7961 ft | 222 kts | 118° |
| 2026-04-29 15:43 | -1.30617 | 37.00145 | 8501 ft | 223 kts | 144° |
| 2026-04-29 15:43 | -1.32043 | 37.00837 | 8895 ft | 234 kts | 169° |
| 2026-04-29 15:44 | -1.33724 | 37.00803 | 9197 ft | 252 kts | 197° |
| 2026-04-29 15:44 | -1.35315 | 36.99915 | 9479 ft | 273 kts | 224° |
| 2026-04-29 15:44 | -1.36379 | 36.98340 | 9975 ft | 284 kts | 250° |
| 2026-04-29 15:44 | -1.36775 | 36.96376 | 10473 ft | 295 kts | 263° |
| 2026-04-29 15:45 | -1.37003 | 36.94284 | 10900 ft | 309 kts | 264° |
| 2026-04-29 15:45 | -1.37189 | 36.92130 | 11381 ft | 320 kts | 264° |
| 2026-04-29 15:45 | -1.37398 | 36.89862 | 11756 ft | 337 kts | 264° |
| 2026-04-29 15:45 | -1.37632 | 36.87464 | 12104 ft | 353 kts | 264° |
| 2026-04-29 15:46 | -1.37908 | 36.85024 | 12584 ft | 364 kts | 263° |
| 2026-04-29 15:46 | -1.38261 | 36.82468 | 13042 ft | 376 kts | 261° |
| 2026-04-29 15:46 | -1.38608 | 36.79840 | 13496 ft | 388 kts | 264° |
| 2026-04-29 15:46 | -1.38772 | 36.77115 | 13755 ft | 405 kts | 268° |
| 2026-04-29 15:47 | -1.38882 | 36.74280 | 14426 ft | 409 kts | 268° |
| 2026-04-29 15:47 | -1.39009 | 36.71427 | 15180 ft | 412 kts | 268° |
| 2026-04-29 15:47 | -1.39153 | 36.68594 | 15861 ft | 415 kts | 267° |
| 2026-04-29 15:47 | -1.39312 | 36.65696 | 16494 ft | 420 kts | 267° |
| 2026-04-29 15:48 | -1.39479 | 36.62797 | 17106 ft | 424 kts | 266° |
| 2026-04-29 15:48 | -1.39654 | 36.59839 | 17718 ft | 428 kts | 266° |
| 2026-04-29 15:48 | -1.39835 | 36.56856 | 18323 ft | 432 kts | 266° |
| 2026-04-29 15:48 | -1.40020 | 36.53847 | 18906 ft | 435 kts | 266° |
| 2026-04-29 15:49 | -1.40205 | 36.50853 | 19473 ft | 439 kts | 266° |
| 2026-04-29 15:49 | -1.40396 | 36.47790 | 20037 ft | 443 kts | 266° |
| 2026-04-29 15:49 | -1.40589 | 36.44702 | 20577 ft | 446 kts | 266° |
| 2026-04-29 15:49 | -1.40782 | 36.41629 | 21095 ft | 450 kts | 266° |
| 2026-04-29 15:50 | -1.40979 | 36.38494 | 21607 ft | 454 kts | 266° |
| 2026-04-29 15:50 | -1.41179 | 36.35326 | 22104 ft | 457 kts | 266° |
| 2026-04-29 15:50 | -1.41377 | 36.32184 | 22579 ft | 461 kts | 265° |
| 2026-04-29 15:50 | -1.41579 | 36.28973 | 23048 ft | 464 kts | 265° |
| 2026-04-29 15:51 | -1.41783 | 36.25737 | 23523 ft | 467 kts | 265° |
| 2026-04-29 15:51 | -1.41985 | 36.22526 | 24005 ft | 471 kts | 265° |
| 2026-04-29 15:51 | -1.42192 | 36.19247 | 24494 ft | 474 kts | 265° |
| 2026-04-29 15:51 | -1.42401 | 36.15943 | 24981 ft | 478 kts | 265° |
| 2026-04-29 15:52 | -1.42608 | 36.12654 | 25463 ft | 481 kts | 265° |
| 2026-04-29 15:52 | -1.42819 | 36.09306 | 25956 ft | 485 kts | 265° |
| 2026-04-29 15:52 | -1.43032 | 36.05935 | 26452 ft | 488 kts | 265° |
| 2026-04-29 15:52 | -1.43246 | 36.02542 | 26947 ft | 492 kts | 265° |
| 2026-04-29 15:53 | -1.43461 | 35.99141 | 27440 ft | 495 kts | 265° |
| 2026-04-29 15:53 | -1.43678 | 35.95692 | 27961 ft | 498 kts | 265° |
| 2026-04-29 15:53 | -1.43894 | 35.92263 | 28468 ft | 502 kts | 265° |
| 2026-04-29 15:53 | -1.44114 | 35.88756 | 28983 ft | 506 kts | 265° |
| 2026-04-29 15:54 | -1.44334 | 35.85258 | 29513 ft | 509 kts | 265° |
| 2026-04-29 15:54 | -1.44555 | 35.81735 | 30189 ft | 508 kts | 265° |
| 2026-04-29 15:54 | -1.44776 | 35.78221 | 30949 ft | 504 kts | 265° |
| 2026-04-29 15:54 | -1.44993 | 35.74778 | 31669 ft | 502 kts | 265° |
| 2026-04-29 15:55 | -1.45213 | 35.71277 | 32206 ft | 504 kts | 265° |
| 2026-04-29 15:55 | -1.45431 | 35.67812 | 32347 ft | 505 kts | 265° |
| 2026-04-29 15:55 | -1.45650 | 35.64319 | 32367 ft | 501 kts | 265° |
| 2026-04-29 15:56 | -1.46082 | 35.57433 | 32352 ft | 495 kts | 265° |
| 2026-04-29 15:56 | -1.46298 | 35.54000 | 32201 ft | 494 kts | 265° |
| 2026-04-29 15:56 | -1.46514 | 35.50565 | 32139 ft | 494 kts | 265° |
| 2026-04-29 15:57 | -1.46950 | 35.43619 | 32108 ft | 497 kts | 265° |
| 2026-04-29 15:57 | -1.47382 | 35.36744 | 32134 ft | 498 kts | 265° |
| 2026-04-29 15:58 | -1.47815 | 35.29824 | 32113 ft | 498 kts | 265° |
| 2026-04-29 15:58 | -1.48247 | 35.22942 | 32094 ft | 498 kts | 265° |
| 2026-04-29 15:59 | -1.48679 | 35.16046 | 32078 ft | 498 kts | 265° |
| 2026-04-29 15:59 | -1.49109 | 35.09164 | 32057 ft | 499 kts | 265° |
| 2026-04-29 16:00 | -1.49545 | 35.02207 | 32041 ft | 499 kts | 265° |
| 2026-04-29 16:00 | -1.49976 | 34.95304 | 32036 ft | 499 kts | 265° |
| 2026-04-29 16:01 | -1.50487 | 34.88427 | 32043 ft | 499 kts | 263° |
| 2026-04-29 16:01 | -1.51197 | 34.81535 | 32064 ft | 499 kts | 263° |
| 2026-04-29 16:02 | -1.51903 | 34.74611 | 32097 ft | 500 kts | 263° |
| 2026-04-29 16:02 | -1.52599 | 34.67712 | 32104 ft | 500 kts | 263° |
| 2026-04-29 16:03 | -1.53290 | 34.60822 | 32080 ft | 500 kts | 263° |
| 2026-04-29 16:03 | -1.53984 | 34.53891 | 32070 ft | 500 kts | 263° |
| 2026-04-29 16:04 | -1.54674 | 34.46997 | 32093 ft | 501 kts | 263° |
| 2026-04-29 16:04 | -1.55368 | 34.40057 | 32119 ft | 501 kts | 263° |
| 2026-04-29 16:05 | -1.56058 | 34.33157 | 32126 ft | 501 kts | 263° |
| 2026-04-29 16:05 | -1.56746 | 34.26264 | 32128 ft | 501 kts | 263° |
| 2026-04-29 16:06 | -1.57431 | 34.19353 | 32131 ft | 501 kts | 263° |
| 2026-04-29 16:06 | -1.58117 | 34.12396 | 32135 ft | 502 kts | 263° |
| 2026-04-29 16:07 | -1.58798 | 34.05480 | 32140 ft | 502 kts | 263° |
| 2026-04-29 16:07 | -1.59483 | 33.98513 | 32146 ft | 502 kts | 263° |
| 2026-04-29 16:08 | -1.60160 | 33.91603 | 32142 ft | 502 kts | 263° |
| 2026-04-29 16:08 | -1.60836 | 33.84689 | 32136 ft | 502 kts | 263° |
| 2026-04-29 16:09 | -1.61517 | 33.77728 | 32129 ft | 502 kts | 263° |
| 2026-04-29 16:09 | -1.62195 | 33.70791 | 32121 ft | 502 kts | 263° |
| 2026-04-29 16:10 | -1.62871 | 33.63881 | 32116 ft | 502 kts | 263° |
| 2026-04-29 16:10 | -1.63551 | 33.56923 | 32111 ft | 502 kts | 263° |
| 2026-04-29 16:11 | -1.64224 | 33.50010 | 32105 ft | 502 kts | 263° |
| 2026-04-29 16:11 | -1.64893 | 33.43097 | 32103 ft | 502 kts | 263° |
| 2026-04-29 16:12 | -1.65566 | 33.36139 | 32102 ft | 502 kts | 263° |
| 2026-04-29 16:12 | -1.66234 | 33.29230 | 32097 ft | 502 kts | 263° |
| 2026-04-29 16:13 | -1.66903 | 33.22316 | 32094 ft | 502 kts | 263° |
| 2026-04-29 16:13 | -1.67575 | 33.15354 | 32092 ft | 502 kts | 263° |
| 2026-04-29 16:14 | -1.68244 | 33.08433 | 32089 ft | 502 kts | 263° |
| 2026-04-29 16:14 | -1.68917 | 33.01470 | 32087 ft | 502 kts | 263° |
| 2026-04-29 16:15 | -1.69585 | 32.94553 | 32084 ft | 502 kts | 263° |
| 2026-04-29 16:15 | -1.70252 | 32.87633 | 32081 ft | 503 kts | 263° |
| 2026-04-29 16:16 | -1.70920 | 32.80709 | 32080 ft | 503 kts | 263° |
| 2026-04-29 16:16 | -1.71593 | 32.73735 | 32078 ft | 503 kts | 263° |
| 2026-04-29 16:17 | -1.72261 | 32.66810 | 32076 ft | 503 kts | 263° |
| 2026-04-29 16:17 | -1.72938 | 32.59885 | 32074 ft | 503 kts | 263° |
| 2026-04-29 16:18 | -1.73641 | 32.52911 | 32072 ft | 503 kts | 263° |
| 2026-04-29 16:18 | -1.74338 | 32.45982 | 32070 ft | 503 kts | 263° |
| 2026-04-29 16:19 | -1.75040 | 32.39008 | 32067 ft | 503 kts | 263° |
| 2026-04-29 16:19 | -1.75735 | 32.32084 | 32061 ft | 503 kts | 263° |
| 2026-04-29 16:20 | -1.76430 | 32.25161 | 32057 ft | 503 kts | 263° |
| 2026-04-29 16:20 | -1.77129 | 32.18187 | 32054 ft | 503 kts | 263° |
| 2026-04-29 16:21 | -1.77824 | 32.11265 | 32051 ft | 503 kts | 263° |
| 2026-04-29 16:21 | -1.78517 | 32.04345 | 32049 ft | 503 kts | 263° |
| 2026-04-29 16:22 | -1.79216 | 31.97373 | 32047 ft | 503 kts | 263° |
| 2026-04-29 16:22 | -1.79909 | 31.90452 | 32045 ft | 503 kts | 263° |
| 2026-04-29 16:23 | -1.80601 | 31.83527 | 32043 ft | 503 kts | 263° |
| 2026-04-29 16:23 | -1.81299 | 31.76557 | 32042 ft | 503 kts | 263° |
| 2026-04-29 16:24 | -1.81994 | 31.69611 | 32047 ft | 502 kts | 263° |
| 2026-04-29 16:24 | -1.82685 | 31.62694 | 32062 ft | 502 kts | 263° |
| 2026-04-29 16:25 | -1.83377 | 31.55777 | 32080 ft | 503 kts | 263° |
| 2026-04-29 16:25 | -1.84072 | 31.48818 | 32101 ft | 502 kts | 263° |
| 2026-04-29 16:26 | -1.84763 | 31.41903 | 32099 ft | 502 kts | 263° |
| 2026-04-29 16:26 | -1.85458 | 31.34940 | 32088 ft | 501 kts | 263° |
| 2026-04-29 16:27 | -1.86148 | 31.28027 | 32077 ft | 501 kts | 263° |
| 2026-04-29 16:27 | -1.86836 | 31.21124 | 32074 ft | 500 kts | 263° |
| 2026-04-29 16:28 | -1.87528 | 31.14185 | 32089 ft | 500 kts | 263° |
| 2026-04-29 16:28 | -1.88213 | 31.07309 | 32110 ft | 500 kts | 263° |
| 2026-04-29 16:29 | -1.88899 | 31.00425 | 32127 ft | 500 kts | 263° |
| 2026-04-29 16:29 | -1.89590 | 30.93484 | 32115 ft | 500 kts | 264° |
| 2026-04-29 16:30 | -1.90275 | 30.86605 | 32074 ft | 499 kts | 264° |
| 2026-04-29 16:30 | -1.90955 | 30.79691 | 32044 ft | 498 kts | 264° |
| 2026-04-29 16:31 | -1.91578 | 30.72825 | 32041 ft | 497 kts | 264° |
| 2026-04-29 16:31 | -1.92201 | 30.65957 | 32061 ft | 497 kts | 264° |
| 2026-04-29 16:32 | -1.92823 | 30.59110 | 32080 ft | 496 kts | 264° |
| 2026-04-29 16:32 | -1.93448 | 30.52234 | 32103 ft | 496 kts | 264° |
| 2026-04-29 16:33 | -1.94379 | 30.41998 | 32116 ft | 495 kts | 264° |
| 2026-04-29 16:33 | -1.95002 | 30.35155 | 32113 ft | 495 kts | 264° |
| 2026-04-29 16:34 | -1.95626 | 30.28300 | 32104 ft | 495 kts | 264° |
| 2026-04-29 16:34 | -1.96249 | 30.21439 | 32099 ft | 495 kts | 264° |
| 2026-04-29 16:35 | -1.96967 | 30.14647 | 32103 ft | 494 kts | 259° |
| 2026-04-29 16:35 | -1.98610 | 30.07982 | 32103 ft | 494 kts | 255° |
| 2026-04-29 16:36 | -2.00347 | 30.01333 | 32093 ft | 494 kts | 255° |
| 2026-04-29 16:36 | -2.02076 | 29.94707 | 32102 ft | 494 kts | 255° |
| 2026-04-29 16:37 | -2.03801 | 29.88093 | 32128 ft | 494 kts | 255° |
| 2026-04-29 16:37 | -2.05239 | 29.82576 | 32148 ft | 494 kts | 255° |
| 2026-04-29 16:38 | -2.07260 | 29.74820 | 32175 ft | 494 kts | 255° |
| 2026-04-29 16:38 | -2.08984 | 29.68202 | 32205 ft | 493 kts | 255° |
| 2026-04-29 16:39 | -2.10706 | 29.61587 | 32236 ft | 493 kts | 255° |
| 2026-04-29 16:39 | -2.12439 | 29.54930 | 32257 ft | 494 kts | 255° |
| 2026-04-29 16:40 | -2.14162 | 29.48311 | 32244 ft | 494 kts | 255° |
| 2026-04-29 16:40 | -2.15897 | 29.41643 | 32187 ft | 494 kts | 255° |
| 2026-04-29 16:41 | -2.17622 | 29.35014 | 32115 ft | 494 kts | 255° |
| 2026-04-29 16:41 | -2.19346 | 29.28387 | 32119 ft | 496 kts | 255° |
| 2026-04-29 16:42 | -2.21087 | 29.21692 | 32149 ft | 497 kts | 255° |
| 2026-04-29 16:42 | -2.22822 | 29.15020 | 32120 ft | 497 kts | 255° |
| 2026-04-29 16:43 | -2.24553 | 29.08357 | 32075 ft | 497 kts | 255° |
| 2026-04-29 16:43 | -2.26287 | 29.01687 | 32036 ft | 498 kts | 255° |
| 2026-04-29 16:44 | -2.28034 | 28.94961 | 32039 ft | 498 kts | 255° |
| 2026-04-29 16:44 | -2.29768 | 28.88288 | 32103 ft | 498 kts | 255° |
| 2026-04-29 16:45 | -2.31505 | 28.81600 | 32180 ft | 499 kts | 255° |
| 2026-04-29 16:45 | -2.33005 | 28.74805 | 32243 ft | 499 kts | 258° |
| 2026-04-29 16:46 | -2.34379 | 28.68031 | 32210 ft | 500 kts | 258° |
| 2026-04-29 16:46 | -2.35777 | 28.61206 | 32140 ft | 499 kts | 257° |
| 2026-04-29 16:47 | -2.37169 | 28.54442 | 32070 ft | 499 kts | 257° |
| 2026-04-29 16:47 | -2.38568 | 28.47669 | 32022 ft | 500 kts | 257° |
| 2026-04-29 16:48 | -2.39980 | 28.40841 | 31990 ft | 501 kts | 257° |
| 2026-04-29 16:48 | -2.41388 | 28.34033 | 31955 ft | 501 kts | 257° |
| 2026-04-29 16:49 | -2.42797 | 28.27225 | 31917 ft | 502 kts | 257° |
| 2026-04-29 16:49 | -2.44214 | 28.20378 | 31892 ft | 501 kts | 257° |
| 2026-04-29 16:50 | -2.45622 | 28.13573 | 31889 ft | 502 kts | 257° |
| 2026-04-29 16:50 | -2.47028 | 28.06775 | 31884 ft | 502 kts | 257° |
| 2026-04-29 16:51 | -2.48450 | 27.99921 | 31879 ft | 502 kts | 257° |
| 2026-04-29 16:51 | -2.49860 | 27.93123 | 31868 ft | 502 kts | 257° |
| 2026-04-29 16:52 | -2.51271 | 27.86320 | 31855 ft | 502 kts | 257° |
| 2026-04-29 16:52 | -2.52691 | 27.79467 | 31842 ft | 502 kts | 257° |
| 2026-04-29 16:53 | -2.54101 | 27.72663 | 31833 ft | 502 kts | 257° |
| 2026-04-29 16:53 | -2.55513 | 27.65848 | 31835 ft | 502 kts | 257° |
| 2026-04-29 16:54 | -2.56933 | 27.58991 | 31851 ft | 502 kts | 257° |
| 2026-04-29 16:54 | -2.58345 | 27.52171 | 31964 ft | 502 kts | 257° |
| 2026-04-29 16:55 | -2.59757 | 27.45350 | 32077 ft | 503 kts | 257° |
| 2026-04-29 16:55 | -2.61167 | 27.38537 | 32071 ft | 502 kts | 257° |
| 2026-04-29 16:56 | -2.62586 | 27.31679 | 32037 ft | 502 kts | 257° |
| 2026-04-29 16:56 | -2.63995 | 27.24861 | 32025 ft | 503 kts | 257° |
| 2026-04-29 16:57 | -2.65407 | 27.18033 | 32024 ft | 503 kts | 257° |
| 2026-04-29 16:57 | -2.66820 | 27.11197 | 32030 ft | 503 kts | 257° |
| 2026-04-29 16:58 | -2.68243 | 27.04308 | 32041 ft | 503 kts | 257° |
| 2026-04-29 16:58 | -2.69654 | 26.97480 | 32051 ft | 503 kts | 257° |
| 2026-04-29 16:59 | -2.71064 | 26.90651 | 32052 ft | 503 kts | 257° |
| 2026-04-29 16:59 | -2.72481 | 26.83788 | 32053 ft | 503 kts | 258° |
| 2026-04-29 17:00 | -2.73888 | 26.76969 | 32054 ft | 504 kts | 258° |
| 2026-04-29 17:00 | -2.75298 | 26.70138 | 32058 ft | 504 kts | 258° |
| 2026-04-29 17:01 | -2.76716 | 26.63261 | 32058 ft | 504 kts | 258° |
| 2026-04-29 17:01 | -2.78114 | 26.56431 | 32056 ft | 503 kts | 258° |
| 2026-04-29 17:02 | -2.79517 | 26.49559 | 32050 ft | 503 kts | 258° |
| 2026-04-29 17:02 | -2.80910 | 26.42735 | 32035 ft | 503 kts | 258° |
| 2026-04-29 17:03 | -2.82308 | 26.35891 | 32052 ft | 511 kts | 258° |
| 2026-04-29 17:03 | -2.83023 | 26.32385 | 32426 ft | 514 kts | 258° |
| 2026-04-29 17:03 | -2.83734 | 26.28901 | 33136 ft | 508 kts | 258° |
| 2026-04-29 17:04 | -2.84431 | 26.25484 | 33700 ft | 506 kts | 258° |
| 2026-04-29 17:04 | -2.85139 | 26.22018 | 34047 ft | 508 kts | 258° |
| 2026-04-29 17:04 | -2.86544 | 26.15127 | 34121 ft | 503 kts | 258° |
| 2026-04-29 17:05 | -2.87929 | 26.08338 | 34005 ft | 499 kts | 258° |
| 2026-04-29 17:05 | -2.89321 | 26.01511 | 33977 ft | 501 kts | 258° |
| 2026-04-29 17:06 | -2.90706 | 25.94713 | 33985 ft | 501 kts | 258° |
| 2026-04-29 17:06 | -2.92064 | 25.87914 | 33983 ft | 501 kts | 260° |
| 2026-04-29 17:07 | -2.93177 | 25.81019 | 33985 ft | 501 kts | 260° |
| 2026-04-29 17:07 | -2.94278 | 25.74166 | 33983 ft | 501 kts | 260° |
| 2026-04-29 17:08 | -2.95388 | 25.67308 | 33983 ft | 501 kts | 260° |
| 2026-04-29 17:08 | -2.96509 | 25.60410 | 33987 ft | 501 kts | 260° |
| 2026-04-29 17:09 | -2.97624 | 25.53563 | 33993 ft | 501 kts | 260° |
| 2026-04-29 17:09 | -2.98740 | 25.46715 | 33998 ft | 501 kts | 260° |
| 2026-04-29 17:10 | -2.99863 | 25.39824 | 33998 ft | 500 kts | 260° |
| 2026-04-29 17:10 | -3.00978 | 25.32986 | 33994 ft | 500 kts | 260° |
| 2026-04-29 17:11 | -3.02094 | 25.26135 | 33988 ft | 501 kts | 260° |
| 2026-04-29 17:11 | -3.03209 | 25.19289 | 33962 ft | 501 kts | 260° |
| 2026-04-29 17:12 | -3.04246 | 25.12399 | 33933 ft | 501 kts | 262° |
| 2026-04-29 17:12 | -3.05038 | 25.06662 | 33926 ft | 501 kts | 262° |
| 2026-04-29 17:13 | -3.06154 | 24.98615 | 33922 ft | 500 kts | 261° |
| 2026-04-29 17:13 | -3.07109 | 24.91758 | 33926 ft | 500 kts | 261° |
| 2026-04-29 17:14 | -3.08070 | 24.84860 | 33932 ft | 499 kts | 261° |
| 2026-04-29 17:14 | -3.09029 | 24.77989 | 33937 ft | 499 kts | 261° |
| 2026-04-29 17:15 | -3.09984 | 24.71140 | 33941 ft | 499 kts | 261° |
| 2026-04-29 17:15 | -3.10940 | 24.64289 | 33944 ft | 499 kts | 261° |
| 2026-04-29 17:16 | -3.11902 | 24.57393 | 33946 ft | 499 kts | 261° |
| 2026-04-29 17:16 | -3.12857 | 24.50542 | 33946 ft | 499 kts | 261° |
| 2026-04-29 17:17 | -3.13818 | 24.43648 | 33946 ft | 499 kts | 261° |
| 2026-04-29 17:17 | -3.14769 | 24.36817 | 33946 ft | 499 kts | 261° |
| 2026-04-29 17:18 | -3.15728 | 24.29933 | 33941 ft | 499 kts | 261° |
| 2026-04-29 17:18 | -3.16682 | 24.23080 | 33941 ft | 499 kts | 261° |
| 2026-04-29 17:19 | -3.17636 | 24.16222 | 33941 ft | 499 kts | 261° |
| 2026-04-29 17:19 | -3.18592 | 24.09345 | 33941 ft | 499 kts | 261° |
| 2026-04-29 17:20 | -3.19544 | 24.02495 | 33941 ft | 499 kts | 261° |
| 2026-04-29 17:20 | -3.20494 | 23.95649 | 33942 ft | 499 kts | 261° |
| 2026-04-29 17:21 | -3.21451 | 23.88762 | 33940 ft | 498 kts | 261° |
| 2026-04-29 17:21 | -3.22397 | 23.81940 | 33941 ft | 497 kts | 261° |
| 2026-04-29 17:22 | -3.23343 | 23.75119 | 33944 ft | 497 kts | 261° |
| 2026-04-29 17:22 | -3.24295 | 23.68255 | 33944 ft | 497 kts | 261° |
| 2026-04-29 17:23 | -3.25239 | 23.61437 | 33941 ft | 497 kts | 261° |
| 2026-04-29 17:23 | -3.26190 | 23.54573 | 33938 ft | 497 kts | 261° |
| 2026-04-29 17:24 | -3.27152 | 23.47758 | 33934 ft | 497 kts | 261° |
| 2026-04-29 17:24 | -3.28137 | 23.40945 | 33929 ft | 497 kts | 261° |
| 2026-04-29 17:25 | -3.29126 | 23.34087 | 33924 ft | 497 kts | 261° |
| 2026-04-29 17:25 | -3.30106 | 23.27279 | 33918 ft | 497 kts | 261° |
| 2026-04-29 17:26 | -3.31087 | 23.20469 | 33916 ft | 497 kts | 261° |
| 2026-04-29 17:26 | -3.32072 | 23.13616 | 33914 ft | 497 kts | 261° |
| 2026-04-29 17:27 | -3.33051 | 23.06808 | 33913 ft | 497 kts | 261° |
| 2026-04-29 17:27 | -3.34031 | 23.00000 | 33911 ft | 497 kts | 261° |
| 2026-04-29 17:28 | -3.35017 | 22.93149 | 33910 ft | 496 kts | 261° |
| 2026-04-29 17:28 | -3.35995 | 22.86344 | 33911 ft | 496 kts | 261° |
| 2026-04-29 17:29 | -3.36974 | 22.79541 | 33912 ft | 496 kts | 261° |
| 2026-04-29 17:29 | -3.37798 | 22.73818 | 33912 ft | 496 kts | 261° |
| 2026-04-29 17:30 | -3.38940 | 22.65892 | 33910 ft | 496 kts | 261° |
| 2026-04-29 17:30 | -3.39926 | 22.59046 | 33910 ft | 496 kts | 261° |
| 2026-04-29 17:31 | -3.40904 | 22.52250 | 33909 ft | 496 kts | 261° |
| 2026-04-29 17:31 | -3.41880 | 22.45460 | 33908 ft | 495 kts | 261° |
| 2026-04-29 17:32 | -3.42862 | 22.38630 | 33908 ft | 495 kts | 261° |
| 2026-04-29 17:32 | -3.43837 | 22.31845 | 33904 ft | 495 kts | 261° |
| 2026-04-29 17:33 | -3.44809 | 22.25072 | 33903 ft | 495 kts | 261° |
| 2026-04-29 17:33 | -3.45789 | 22.18247 | 33903 ft | 494 kts | 261° |
| 2026-04-29 17:34 | -3.46761 | 22.11470 | 33905 ft | 494 kts | 261° |
| 2026-04-29 17:34 | -3.47732 | 22.04694 | 33905 ft | 494 kts | 261° |
| 2026-04-29 17:35 | -3.49192 | 21.94506 | 33905 ft | 494 kts | 261° |
| 2026-04-29 17:36 | -3.50168 | 21.87686 | 33904 ft | 494 kts | 261° |
| 2026-04-29 17:36 | -3.51137 | 21.80913 | 33906 ft | 494 kts | 261° |
| 2026-04-29 17:37 | -3.52106 | 21.74140 | 33913 ft | 494 kts | 261° |
| 2026-04-29 17:37 | -3.53081 | 21.67318 | 33919 ft | 494 kts | 261° |
| 2026-04-29 17:38 | -3.54049 | 21.60542 | 33920 ft | 494 kts | 261° |
| 2026-04-29 17:38 | -3.55017 | 21.53767 | 33920 ft | 494 kts | 261° |
| 2026-04-29 17:39 | -3.55990 | 21.46944 | 33920 ft | 494 kts | 261° |
| 2026-04-29 17:39 | -3.56957 | 21.40170 | 33918 ft | 494 kts | 261° |
| 2026-04-29 17:40 | -3.57930 | 21.33346 | 33914 ft | 494 kts | 261° |
| 2026-04-29 17:40 | -3.58896 | 21.26563 | 33911 ft | 495 kts | 261° |
| 2026-04-29 17:41 | -3.59863 | 21.19773 | 33910 ft | 495 kts | 261° |
| 2026-04-29 17:41 | -3.60837 | 21.12931 | 33912 ft | 496 kts | 261° |
| 2026-04-29 17:42 | -3.61804 | 21.06135 | 33913 ft | 496 kts | 261° |
| 2026-04-29 17:42 | -3.62770 | 20.99336 | 33914 ft | 496 kts | 261° |
| 2026-04-29 17:43 | -3.63743 | 20.92488 | 33914 ft | 496 kts | 261° |
| 2026-04-29 17:43 | -3.64709 | 20.85690 | 33913 ft | 496 kts | 261° |
| 2026-04-29 17:44 | -3.65677 | 20.78873 | 33912 ft | 496 kts | 261° |
| 2026-04-29 17:44 | -3.66643 | 20.72070 | 33912 ft | 496 kts | 261° |
| 2026-04-29 17:45 | -3.67615 | 20.65218 | 33912 ft | 496 kts | 261° |
| 2026-04-29 17:45 | -3.68580 | 20.58412 | 33913 ft | 496 kts | 261° |
| 2026-04-29 17:46 | -3.69545 | 20.51604 | 33913 ft | 496 kts | 261° |
| 2026-04-29 17:46 | -3.70517 | 20.44745 | 33914 ft | 496 kts | 261° |
| 2026-04-29 17:47 | -3.71481 | 20.37938 | 33913 ft | 496 kts | 261° |
| 2026-04-29 17:47 | -3.72444 | 20.31132 | 33909 ft | 496 kts | 261° |
| 2026-04-29 17:48 | -3.73413 | 20.24279 | 33908 ft | 496 kts | 261° |
| 2026-04-29 17:48 | -3.74374 | 20.17475 | 33908 ft | 496 kts | 261° |
| 2026-04-29 17:49 | -3.75336 | 20.10668 | 33909 ft | 496 kts | 261° |
| 2026-04-29 17:49 | -3.76303 | 20.03814 | 33911 ft | 496 kts | 261° |
| 2026-04-29 17:50 | -3.77264 | 19.97007 | 33911 ft | 496 kts | 261° |
| 2026-04-29 17:50 | -3.78224 | 19.90198 | 33910 ft | 496 kts | 261° |
| 2026-04-29 17:51 | -3.79190 | 19.83339 | 33909 ft | 496 kts | 261° |
| 2026-04-29 17:51 | -3.80150 | 19.76530 | 33907 ft | 496 kts | 261° |
| 2026-04-29 17:52 | -3.81109 | 19.69715 | 33906 ft | 496 kts | 261° |
| 2026-04-29 17:52 | -3.82073 | 19.62857 | 33902 ft | 496 kts | 261° |
| 2026-04-29 17:53 | -3.83031 | 19.56045 | 33899 ft | 496 kts | 261° |
| 2026-04-29 17:53 | -3.83989 | 19.49232 | 33894 ft | 497 kts | 261° |
| 2026-04-29 17:54 | -3.84952 | 19.42369 | 33894 ft | 497 kts | 261° |
| 2026-04-29 17:54 | -3.85909 | 19.35552 | 33898 ft | 497 kts | 261° |
| 2026-04-29 17:55 | -3.86866 | 19.28731 | 33898 ft | 497 kts | 261° |
| 2026-04-29 17:55 | -3.87829 | 19.21861 | 33901 ft | 498 kts | 261° |
| 2026-04-29 17:56 | -3.88787 | 19.15025 | 33892 ft | 498 kts | 261° |
| 2026-04-29 17:56 | -3.89744 | 19.08187 | 33885 ft | 498 kts | 261° |
| 2026-04-29 17:57 | -3.90708 | 19.01300 | 33880 ft | 498 kts | 261° |
| 2026-04-29 17:57 | -3.91667 | 18.94454 | 33879 ft | 499 kts | 261° |
| 2026-04-29 17:58 | -3.92625 | 18.87612 | 33880 ft | 499 kts | 261° |
| 2026-04-29 17:58 | -3.93590 | 18.80718 | 33881 ft | 499 kts | 261° |
| 2026-04-29 17:59 | -3.94547 | 18.73873 | 33881 ft | 498 kts | 261° |
| 2026-04-29 17:59 | -3.95503 | 18.67033 | 33880 ft | 499 kts | 261° |
| 2026-04-29 18:00 | -3.96464 | 18.60146 | 33879 ft | 499 kts | 261° |
| 2026-04-29 18:00 | -3.97420 | 18.53299 | 33877 ft | 499 kts | 261° |
| 2026-04-29 18:01 | -3.98382 | 18.46406 | 33875 ft | 499 kts | 262° |
| 2026-04-29 18:01 | -3.99336 | 18.39557 | 33871 ft | 499 kts | 262° |
| 2026-04-29 18:02 | -4.00291 | 18.32709 | 33863 ft | 499 kts | 262° |
| 2026-04-29 18:02 | -4.01250 | 18.25814 | 33858 ft | 499 kts | 262° |
| 2026-04-29 18:03 | -4.02203 | 18.18967 | 33857 ft | 499 kts | 262° |
| 2026-04-29 18:03 | -4.03155 | 18.12120 | 33870 ft | 499 kts | 262° |
| 2026-04-29 18:04 | -4.04113 | 18.05222 | 33888 ft | 499 kts | 262° |
| 2026-04-29 18:04 | -4.05065 | 17.98369 | 33902 ft | 499 kts | 262° |
| 2026-04-29 18:05 | -4.06016 | 17.91518 | 33905 ft | 499 kts | 262° |
| 2026-04-29 18:05 | -4.06974 | 17.84606 | 33905 ft | 499 kts | 262° |
| 2026-04-29 18:06 | -4.07923 | 17.77758 | 33907 ft | 499 kts | 262° |
| 2026-04-29 18:06 | -4.08878 | 17.70862 | 33909 ft | 499 kts | 262° |
| 2026-04-29 18:07 | -4.09827 | 17.64012 | 33910 ft | 499 kts | 262° |
| 2026-04-29 18:07 | -4.10785 | 17.57114 | 33911 ft | 499 kts | 262° |
| 2026-04-29 18:08 | -4.11737 | 17.50264 | 33912 ft | 499 kts | 262° |
| 2026-04-29 18:08 | -4.12688 | 17.43415 | 33913 ft | 499 kts | 262° |
| 2026-04-29 18:08 | -4.13161 | 17.40007 | 33889 ft | 486 kts | 262° |
| 2026-04-29 18:09 | -4.13619 | 17.36711 | 33459 ft | 485 kts | 262° |
| 2026-04-29 18:09 | -4.14088 | 17.33330 | 32577 ft | 493 kts | 262° |
| 2026-04-29 18:09 | -4.14564 | 17.29908 | 31739 ft | 499 kts | 262° |
| 2026-04-29 18:09 | -4.15036 | 17.26498 | 30933 ft | 504 kts | 262° |
| 2026-04-29 18:10 | -4.15519 | 17.23016 | 30303 ft | 503 kts | 262° |
| 2026-04-29 18:10 | -4.15998 | 17.19560 | 29648 ft | 497 kts | 262° |
| 2026-04-29 18:10 | -4.16463 | 17.16196 | 29083 ft | 490 kts | 262° |
| 2026-04-29 18:10 | -4.16928 | 17.12840 | 28570 ft | 481 kts | 262° |
| 2026-04-29 18:11 | -4.17384 | 17.09542 | 28084 ft | 473 kts | 262° |
| 2026-04-29 18:11 | -4.17827 | 17.06341 | 27712 ft | 466 kts | 262° |
| 2026-04-29 18:11 | -4.18275 | 17.03100 | 27281 ft | 477 kts | 262° |
| 2026-04-29 18:11 | -4.18736 | 16.99766 | 26773 ft | 485 kts | 262° |
| 2026-04-29 18:12 | -4.19191 | 16.96473 | 26253 ft | 481 kts | 262° |
| 2026-04-29 18:12 | -4.19649 | 16.93160 | 25705 ft | 478 kts | 262° |
| 2026-04-29 18:12 | -4.20103 | 16.89873 | 25159 ft | 474 kts | 262° |
| 2026-04-29 18:12 | -4.20553 | 16.86613 | 24617 ft | 470 kts | 262° |
| 2026-04-29 18:13 | -4.20993 | 16.83423 | 24080 ft | 466 kts | 263° |
| 2026-04-29 18:13 | -4.21436 | 16.80217 | 23508 ft | 462 kts | 263° |
| 2026-04-29 18:13 | -4.21869 | 16.77080 | 22963 ft | 458 kts | 263° |
| 2026-04-29 18:13 | -4.22303 | 16.73932 | 22424 ft | 453 kts | 263° |
| 2026-04-29 18:14 | -4.22635 | 16.70804 | 21894 ft | 447 kts | 271° |
| 2026-04-29 18:14 | -4.22299 | 16.67794 | 21547 ft | 434 kts | 285° |
| 2026-04-29 18:14 | -4.21272 | 16.65006 | 21243 ft | 418 kts | 300° |
| 2026-04-29 18:14 | -4.19684 | 16.62620 | 20971 ft | 404 kts | 312° |
| 2026-04-29 18:15 | -4.17732 | 16.60703 | 20673 ft | 390 kts | 324° |
| 2026-04-29 18:15 | -4.15494 | 16.59224 | 20433 ft | 376 kts | 334° |
| 2026-04-29 18:15 | -4.13093 | 16.58279 | 20275 ft | 360 kts | 347° |
| 2026-04-29 18:15 | -4.10677 | 16.57963 | 20111 ft | 348 kts | 4° |
| 2026-04-29 18:16 | -4.08292 | 16.58346 | 19971 ft | 344 kts | 19° |
| 2026-04-29 18:16 | -4.06019 | 16.59117 | 19852 ft | 341 kts | 21° |
| 2026-04-29 18:16 | -4.03814 | 16.59914 | 19735 ft | 338 kts | 21° |
| 2026-04-29 18:16 | -4.01590 | 16.60719 | 19618 ft | 337 kts | 21° |
| 2026-04-29 18:17 | -3.99363 | 16.61523 | 19503 ft | 338 kts | 21° |
| 2026-04-29 18:17 | -3.97166 | 16.62313 | 19390 ft | 337 kts | 21° |
| 2026-04-29 18:17 | -3.94944 | 16.63112 | 19276 ft | 337 kts | 21° |
| 2026-04-29 18:17 | -3.92726 | 16.63910 | 19159 ft | 336 kts | 21° |
| 2026-04-29 18:18 | -3.90539 | 16.64694 | 19045 ft | 336 kts | 21° |
| 2026-04-29 18:18 | -3.88322 | 16.65491 | 18929 ft | 335 kts | 21° |
| 2026-04-29 18:18 | -3.86113 | 16.66287 | 18814 ft | 335 kts | 21° |
| 2026-04-29 18:18 | -3.83939 | 16.67071 | 18701 ft | 334 kts | 21° |
| 2026-04-29 18:19 | -3.81740 | 16.67865 | 18586 ft | 333 kts | 21° |
| 2026-04-29 18:19 | -3.79543 | 16.68660 | 18472 ft | 333 kts | 21° |
| 2026-04-29 18:19 | -3.77382 | 16.69442 | 18358 ft | 332 kts | 21° |
| 2026-04-29 18:19 | -3.75194 | 16.70235 | 18243 ft | 332 kts | 21° |
| 2026-04-29 18:20 | -3.73010 | 16.71026 | 18128 ft | 331 kts | 21° |
| 2026-04-29 18:20 | -3.70859 | 16.71805 | 18015 ft | 331 kts | 21° |
| 2026-04-29 18:20 | -3.68680 | 16.72595 | 17900 ft | 330 kts | 21° |
| 2026-04-29 18:20 | -3.66507 | 16.73386 | 17786 ft | 330 kts | 21° |
| 2026-04-29 18:21 | -3.64366 | 16.74166 | 17672 ft | 329 kts | 22° |
| 2026-04-29 18:21 | -3.62342 | 16.75225 | 17537 ft | 325 kts | 41° |
| 2026-04-29 18:21 | -3.60897 | 16.76947 | 17409 ft | 323 kts | 64° |
| 2026-04-29 18:21 | -3.60259 | 16.79098 | 17281 ft | 322 kts | 87° |
| 2026-04-29 18:22 | -3.60530 | 16.81285 | 17164 ft | 321 kts | 110° |
| 2026-04-29 18:22 | -3.61657 | 16.83203 | 17037 ft | 324 kts | 133° |
| 2026-04-29 18:22 | -3.63479 | 16.84541 | 16910 ft | 326 kts | 155° |
| 2026-04-29 18:22 | -3.65698 | 16.85059 | 16781 ft | 328 kts | 179° |
| 2026-04-29 18:23 | -3.67929 | 16.84681 | 16653 ft | 331 kts | 201° |
| 2026-04-29 18:23 | -3.69896 | 16.83464 | 16531 ft | 332 kts | 219° |
| 2026-04-29 18:23 | -3.71621 | 16.81898 | 16416 ft | 333 kts | 222° |
| 2026-04-29 18:23 | -3.73284 | 16.80317 | 16299 ft | 332 kts | 223° |
| 2026-04-29 18:24 | -3.74964 | 16.78714 | 16180 ft | 332 kts | 223° |
| 2026-04-29 18:24 | -3.76644 | 16.77109 | 16063 ft | 331 kts | 223° |
| 2026-04-29 18:24 | -3.78295 | 16.75532 | 15947 ft | 330 kts | 223° |
| 2026-04-29 18:24 | -3.79967 | 16.73935 | 15830 ft | 330 kts | 223° |
| 2026-04-29 18:25 | -3.81635 | 16.72341 | 15713 ft | 329 kts | 223° |
| 2026-04-29 18:25 | -3.83258 | 16.70750 | 15592 ft | 329 kts | 227° |
| 2026-04-29 18:25 | -3.84696 | 16.68954 | 15478 ft | 329 kts | 233° |
| 2026-04-29 18:25 | -3.86020 | 16.67067 | 15361 ft | 332 kts | 234° |
| 2026-04-29 18:26 | -3.87388 | 16.65091 | 15260 ft | 365 kts | 234° |
| 2026-04-29 18:26 | -3.88902 | 16.62909 | 15146 ft | 389 kts | 234° |
| 2026-04-29 18:26 | -3.90442 | 16.60691 | 15025 ft | 389 kts | 234° |
| 2026-04-29 18:26 | -3.91993 | 16.58459 | 14907 ft | 389 kts | 234° |
| 2026-04-29 18:27 | -3.93542 | 16.56229 | 14790 ft | 388 kts | 234° |
| 2026-04-29 18:27 | -3.95089 | 16.54006 | 14673 ft | 387 kts | 234° |
| 2026-04-29 18:27 | -3.96616 | 16.51810 | 14557 ft | 387 kts | 234° |
| 2026-04-29 18:27 | -3.98159 | 16.49593 | 14440 ft | 386 kts | 234° |
| 2026-04-29 18:28 | -3.99701 | 16.47379 | 14323 ft | 385 kts | 234° |
| 2026-04-29 18:28 | -4.01218 | 16.45200 | 14210 ft | 385 kts | 234° |
| 2026-04-29 18:28 | -4.02758 | 16.42992 | 14094 ft | 384 kts | 234° |
| 2026-04-29 18:28 | -4.04295 | 16.40790 | 13979 ft | 384 kts | 234° |
| 2026-04-29 18:29 | -4.05811 | 16.38621 | 13866 ft | 383 kts | 234° |
| 2026-04-29 18:29 | -4.06842 | 16.37145 | 13789 ft | 383 kts | 234° |
| 2026-04-29 18:29 | -4.08879 | 16.34232 | 13634 ft | 382 kts | 234° |
| 2026-04-29 18:29 | -4.10389 | 16.32074 | 13517 ft | 381 kts | 234° |
| 2026-04-29 18:30 | -4.11916 | 16.29893 | 13398 ft | 381 kts | 234° |
| 2026-04-29 18:30 | -4.13448 | 16.27707 | 13279 ft | 381 kts | 234° |
| 2026-04-29 18:30 | -4.14964 | 16.25547 | 13158 ft | 380 kts | 234° |
| 2026-04-29 18:30 | -4.16449 | 16.23346 | 13037 ft | 380 kts | 240° |
| 2026-04-29 18:31 | -4.17497 | 16.20984 | 12977 ft | 369 kts | 254° |
| 2026-04-29 18:31 | -4.17921 | 16.18503 | 12941 ft | 353 kts | 267° |
| 2026-04-29 18:31 | -4.18005 | 16.16094 | 12910 ft | 338 kts | 269° |
| 2026-04-29 18:31 | -4.18041 | 16.13783 | 12871 ft | 323 kts | 272° |
| 2026-04-29 18:32 | -4.17808 | 16.11605 | 12691 ft | 315 kts | 279° |
| 2026-04-29 18:32 | -4.17179 | 16.07265 | 11982 ft | 314 kts | 279° |
| 2026-04-29 18:32 | -4.16853 | 16.05136 | 11659 ft | 311 kts | 280° |
| 2026-04-29 18:33 | -4.16535 | 16.02991 | 11322 ft | 310 kts | 279° |
| 2026-04-29 18:33 | -4.16223 | 16.00856 | 10983 ft | 308 kts | 279° |
| 2026-04-29 18:33 | -4.15916 | 15.98758 | 10626 ft | 307 kts | 279° |
| 2026-04-29 18:33 | -4.15592 | 15.96637 | 10272 ft | 306 kts | 279° |
| 2026-04-29 18:34 | -4.15291 | 15.94513 | 9853 ft | 307 kts | 280° |
| 2026-04-29 18:34 | -4.15168 | 15.93120 | 9669 ft | 303 kts | 269° |
| 2026-04-29 18:34 | -4.15837 | 15.90400 | 9123 ft | 303 kts | 248° |
| 2026-04-29 18:34 | -4.16604 | 15.88422 | 8729 ft | 303 kts | 248° |
| 2026-04-29 18:35 | -4.17371 | 15.86472 | 8456 ft | 299 kts | 249° |
| 2026-04-29 18:35 | -4.18142 | 15.84568 | 8082 ft | 298 kts | 247° |
| 2026-04-29 18:35 | -4.18933 | 15.82642 | 7686 ft | 298 kts | 248° |
| 2026-04-29 18:35 | -4.19717 | 15.80723 | 7407 ft | 294 kts | 248° |
| 2026-04-29 18:36 | -4.20489 | 15.78859 | 7130 ft | 291 kts | 247° |
| 2026-04-29 18:36 | -4.21270 | 15.76986 | 6831 ft | 290 kts | 246° |
| 2026-04-29 18:36 | -4.22031 | 15.75115 | 6483 ft | 289 kts | 247° |
| 2026-04-29 18:36 | -4.22792 | 15.73289 | 6276 ft | 282 kts | 248° |
| 2026-04-29 18:37 | -4.23521 | 15.71482 | 6121 ft | 275 kts | 248° |
| 2026-04-29 18:37 | -4.24238 | 15.69723 | 5948 ft | 268 kts | 248° |
| 2026-04-29 18:37 | -4.24929 | 15.68024 | 5739 ft | 263 kts | 248° |
| 2026-04-29 18:37 | -4.25540 | 15.66336 | 5675 ft | 251 kts | 252° |
| 2026-04-29 18:38 | -4.26089 | 15.64690 | 5486 ft | 245 kts | 250° |
| 2026-04-29 18:38 | -4.26741 | 15.63125 | 5095 ft | 249 kts | 245° |
| 2026-04-29 18:38 | -4.27545 | 15.61578 | 4737 ft | 249 kts | 241° |
| 2026-04-29 18:38 | -4.28404 | 15.60076 | 4382 ft | 244 kts | 239° |
| 2026-04-29 18:39 | -4.29272 | 15.58656 | 4047 ft | 238 kts | 237° |
| 2026-04-29 18:39 | -4.30170 | 15.57280 | 3727 ft | 232 kts | 236° |
| 2026-04-29 18:39 | -4.31064 | 15.55955 | 3400 ft | 224 kts | 236° |
| 2026-04-29 18:39 | -4.31888 | 15.54713 | 3138 ft | 209 kts | 236° |
| 2026-04-29 18:40 | -4.32672 | 15.53524 | 2864 ft | 197 kts | 236° |
| 2026-04-29 18:40 | -4.33393 | 15.52403 | 2594 ft | 184 kts | 236° |
| 2026-04-29 18:40 | -4.34069 | 15.51372 | 2351 ft | 173 kts | 236° |
| 2026-04-29 18:40 | -4.34698 | 15.50406 | 2137 ft | 159 kts | 237° |
| 2026-04-29 18:41 | -4.36446 | 15.47707 | 1481 ft | 156 kts | 238° |
| 2026-04-29 18:41 | -4.37051 | 15.46787 | 1285 ft | 159 kts | 237° |
| 2026-04-29 18:42 | -4.37652 | 15.45854 | 1112 ft | 161 kts | 237° |
| 2026-04-29 18:42 | -4.38239 | 15.44951 | 1038 ft | 135 kts | 237° |
| 2026-04-29 18:42 | -4.38669 | 15.44290 | 1039 ft | 90 kts | 238° |
| 2026-04-29 18:42 | -4.38897 | 15.43934 | 1039 ft | 37 kts | 238° |
| 2026-04-29 18:43 | -4.39031 | 15.43726 | 1040 ft | 33 kts | 234° |
| 2026-04-29 18:43 | -4.39139 | 15.43566 | 1040 ft | 25 kts | 237° |
| 2026-04-29 18:43 | -4.39231 | 15.43426 | 1040 ft | 23 kts | 237° |
| 2026-04-29 18:43 | -4.39315 | 15.43298 | 1040 ft | 20 kts | 238° |
| 2026-04-29 18:44 | -4.39396 | 15.43163 | 1040 ft | 24 kts | 239° |
| 2026-04-29 18:44 | -4.39485 | 15.43031 | 1041 ft | 21 kts | 235° |
| 2026-04-29 18:44 | -4.39567 | 15.42911 | 1041 ft | 19 kts | 236° |
| 2026-04-29 18:44 | -4.39646 | 15.42840 | 1041 ft | 14 kts | 205° |
| 2026-04-29 18:45 | -4.39663 | 15.42787 | 1041 ft | 9 kts | 349° |
| 2026-04-29 18:45 | -4.39611 | 15.42837 | 1041 ft | 16 kts | 55° |
| 2026-04-29 18:45 | -4.39527 | 15.42970 | 1041 ft | 28 kts | 57° |
| 2026-04-29 18:45 | -4.39396 | 15.43171 | 1040 ft | 39 kts | 57° |
| 2026-04-29 18:46 | -4.39231 | 15.43423 | 1040 ft | 45 kts | 57° |
| 2026-04-29 18:46 | -4.39065 | 15.43679 | 1040 ft | 41 kts | 57° |
| 2026-04-29 18:46 | -4.38914 | 15.43912 | 1039 ft | 38 kts | 57° |
| 2026-04-29 18:46 | -4.38783 | 15.44114 | 1039 ft | 32 kts | 57° |
| 2026-04-29 18:47 | -4.38665 | 15.44295 | 1039 ft | 29 kts | 57° |
| 2026-04-29 18:47 | -4.38594 | 15.44406 | 1039 ft | 8 kts | 61° |
| 2026-04-29 18:47 | -4.38594 | 15.44461 | 1039 ft | 10 kts | 120° |
| 2026-04-29 18:47 | -4.38659 | 15.44511 | 1039 ft | 11 kts | 149° |
| 2026-04-29 18:48 | -4.38729 | 15.44544 | 1039 ft | 10 kts | 183° |
| 2026-04-29 18:48 | -4.38796 | 15.44527 | 1039 ft | 9 kts | 194° |
| 2026-04-29 18:48 | -4.38858 | 15.44511 | 1039 ft | 6 kts | 194° |
| 2026-04-29 18:48 | -4.38875 | 15.44506 | 1039 ft | 0 kts | 194° |